createdAt,value
2023-05-10T00:01:28.385Z,77.72
2023-05-10T00:03:58.581Z,77.73
2023-05-10T00:06:31.801Z,78.15
2023-05-10T00:09:02.200Z,78.03
2023-05-10T00:11:32.406Z,77.87
2023-05-10T00:14:04.935Z,77.79
2023-05-10T00:16:37.969Z,77.97
2023-05-10T00:19:08.110Z,78.05
2023-05-10T00:21:41.022Z,78.02
2023-05-10T00:24:11.305Z,77.72
2023-05-10T00:26:42.855Z,77.93
2023-05-10T00:29:14.161Z,78.07
2023-05-10T00:31:44.058Z,77.54
2023-05-10T00:34:14.237Z,77.77
2023-05-10T00:36:46.969Z,77.62
2023-05-10T00:39:17.310Z,77.50
2023-05-10T00:41:51.425Z,77.47
2023-05-10T00:44:22.462Z,77.06
2023-05-10T00:46:53.449Z,76.80
2023-05-10T00:49:23.607Z,77.09
2023-05-10T00:51:56.535Z,76.80
2023-05-10T00:54:27.026Z,77.14
2023-05-10T00:56:58.636Z,76.93
2023-05-10T00:59:29.168Z,76.94
2023-05-10T01:02:00.013Z,76.99
2023-05-10T01:04:30.382Z,77.13
2023-05-10T01:07:03.727Z,77.30
2023-05-10T01:09:34.149Z,77.67
2023-05-10T01:12:08.142Z,77.90
2023-05-10T01:14:39.641Z,77.80
2023-05-10T01:17:12.285Z,77.80
2023-05-10T01:19:42.785Z,77.66
2023-05-10T01:22:49.195Z,77.55
2023-05-10T01:25:50.794Z,77.69
2023-05-10T01:28:41.368Z,77.64
2023-05-10T01:31:26.816Z,77.94
2023-05-10T01:34:03.500Z,78.05
2023-05-10T01:36:36.360Z,78.06
2023-05-10T01:39:17.145Z,78.44
2023-05-10T01:41:54.245Z,78.23
2023-05-10T01:44:34.352Z,78.18
2023-05-10T01:47:10.188Z,78.44
2023-05-10T01:49:49.893Z,79.10
2023-05-10T01:52:23.326Z,78.94
2023-05-10T01:54:58.119Z,78.68
2023-05-10T01:57:34.277Z,78.89
2023-05-10T02:00:07.484Z,78.61
2023-05-10T02:02:50.081Z,78.98
2023-05-10T02:05:26.158Z,78.89
2023-05-10T02:07:58.316Z,78.83
2023-05-10T02:10:29.849Z,78.69
2023-05-10T02:13:04.971Z,78.58
2023-05-10T02:15:36.262Z,78.69
2023-05-10T02:18:08.153Z,78.75
2023-05-10T02:20:43.214Z,78.64
2023-05-10T02:23:15.037Z,78.37
2023-05-10T02:25:47.263Z,78.96
2023-05-10T02:28:19.522Z,78.96
2023-05-10T02:30:51.626Z,78.99
2023-05-10T02:33:23.450Z,79.36
2023-05-10T02:35:57.439Z,79.16
2023-05-10T02:38:29.797Z,79.23
2023-05-10T02:41:01.355Z,79.47
2023-05-10T02:43:36.531Z,79.66
2023-05-10T02:46:07.589Z,79.26
2023-05-10T02:48:39.679Z,79.53
2023-05-10T02:51:13.775Z,79.71
2023-05-10T02:53:50.287Z,79.63
2023-05-10T02:56:32.955Z,79.67
2023-05-10T02:59:05.252Z,79.94
2023-05-10T03:01:37.386Z,79.67
2023-05-10T03:04:08.488Z,79.85
2023-05-10T03:06:41.551Z,80.01
2023-05-10T03:09:16.840Z,80.22
2023-05-10T03:12:00.796Z,80.11
2023-05-10T03:14:49.857Z,80.47
2023-05-10T03:17:26.689Z,80.64
2023-05-10T03:19:59.600Z,80.58
2023-05-10T03:22:36.360Z,80.56
2023-05-10T03:25:10.126Z,80.35
2023-05-10T03:27:44.154Z,80.31
2023-05-10T03:30:17.113Z,80.40
2023-05-10T03:32:47.397Z,80.05
2023-05-10T03:35:20.261Z,79.86
2023-05-10T03:37:53.124Z,79.83
2023-05-10T03:40:24.447Z,79.97
2023-05-10T03:42:54.632Z,79.86
2023-05-10T03:45:24.903Z,80.04
2023-05-10T03:47:55.628Z,80.12
2023-05-10T03:50:26.088Z,80.26
2023-05-10T03:52:59.879Z,80.34
2023-05-10T03:55:35.752Z,80.28
2023-05-10T03:58:06.321Z,80.56
2023-05-10T04:00:38.337Z,80.56
2023-05-10T04:03:08.796Z,80.96
2023-05-10T04:05:39.123Z,80.87
2023-05-10T04:08:12.833Z,81.44
2023-05-10T04:10:43.013Z,81.50
2023-05-10T04:13:13.581Z,81.34
2023-05-10T04:15:44.476Z,81.49
2023-05-10T04:18:14.652Z,81.96
2023-05-10T04:20:45.012Z,81.93
2023-05-10T04:23:18.316Z,81.96
2023-05-10T04:25:48.744Z,81.85
2023-05-10T04:28:18.867Z,81.73
2023-05-10T04:30:49.265Z,81.87
2023-05-10T04:33:19.598Z,81.73
2023-05-10T04:35:49.821Z,81.69
2023-05-10T04:38:22.725Z,81.67
2023-05-10T04:40:52.915Z,81.64
2023-05-10T04:43:23.063Z,81.23
2023-05-10T04:45:53.235Z,81.54
2023-05-10T04:48:25.186Z,81.35
2023-05-10T04:50:57.674Z,81.27
2023-05-10T04:53:30.585Z,81.13
2023-05-10T04:56:00.745Z,80.96
2023-05-10T04:58:30.955Z,81.01
2023-05-10T05:01:01.191Z,81.00
2023-05-10T05:03:31.411Z,80.65
2023-05-10T05:06:01.636Z,80.54
2023-05-10T05:08:34.397Z,80.68
2023-05-10T05:11:04.750Z,80.26
2023-05-10T05:13:35.082Z,80.52
2023-05-10T05:16:06.480Z,80.20
2023-05-10T05:18:36.727Z,80.35
2023-05-10T05:21:09.715Z,79.30
2023-05-10T05:23:42.559Z,79.73
2023-05-10T05:26:12.891Z,79.92
2023-05-10T05:28:43.147Z,79.83
2023-05-10T05:31:15.703Z,79.54
2023-05-10T05:33:46.793Z,78.98
2023-05-10T05:36:16.715Z,79.72
2023-05-10T05:38:50.385Z,78.50
2023-05-10T05:41:21.268Z,78.28
2023-05-10T05:43:51.519Z,79.12
2023-05-10T05:46:22.032Z,78.71
2023-05-10T05:48:54.674Z,79.61
2023-05-10T05:51:26.650Z,81.28
2023-05-10T05:54:00.286Z,77.19
2023-05-10T05:56:30.619Z,76.49
2023-05-10T05:59:00.819Z,77.36
2023-05-10T06:01:30.991Z,76.96
2023-05-10T06:04:04.344Z,79.74
2023-05-10T06:06:34.655Z,75.47
2023-05-10T06:09:07.665Z,75.31
2023-05-10T06:11:38.188Z,74.00
2023-05-10T06:14:09.480Z,73.68
2023-05-10T06:16:40.027Z,75.67
2023-05-10T06:19:14.090Z,75.59
2023-05-10T06:21:44.303Z,74.46
2023-05-10T06:24:17.400Z,71.88
2023-05-10T06:26:47.945Z,70.28
2023-05-10T06:29:19.615Z,68.91
2023-05-10T06:31:52.514Z,69.49
2023-05-10T06:34:22.963Z,69.82
2023-05-10T06:36:53.545Z,69.81
2023-05-10T06:39:26.496Z,69.55
2023-05-10T06:41:56.763Z,68.42
2023-05-10T06:44:29.457Z,68.71
2023-05-10T06:47:00.030Z,69.28
2023-05-10T06:49:31.756Z,70.05
2023-05-10T06:52:01.967Z,68.53
2023-05-10T06:54:34.989Z,68.00
2023-05-10T06:57:10.804Z,66.66
2023-05-10T06:59:46.889Z,67.42
2023-05-10T07:02:17.127Z,68.50
2023-05-10T07:04:47.444Z,67.94
2023-05-10T07:07:20.656Z,67.01
2023-05-10T07:09:53.911Z,66.51
2023-05-10T07:12:24.177Z,67.32
2023-05-10T07:14:54.552Z,67.60
2023-05-10T07:17:24.985Z,66.63
2023-05-10T07:19:57.473Z,66.22
2023-05-10T07:22:28.180Z,67.92
2023-05-10T07:25:01.285Z,67.22
2023-05-10T07:27:31.406Z,68.11
2023-05-10T07:30:01.830Z,68.31
2023-05-10T07:32:32.095Z,67.98
2023-05-10T07:35:02.426Z,67.66
2023-05-10T07:37:35.288Z,66.88
2023-05-10T07:40:09.894Z,66.73
2023-05-10T07:42:40.321Z,66.88
2023-05-10T07:45:12.384Z,67.25
2023-05-10T07:47:44.029Z,66.89
2023-05-10T07:50:16.780Z,65.87
2023-05-10T07:52:47.484Z,66.01
2023-05-10T07:55:22.525Z,65.66
2023-05-10T07:57:53.011Z,64.95
2023-05-10T08:00:25.404Z,65.07
2023-05-10T08:02:55.756Z,64.86
2023-05-10T08:05:26.046Z,65.51
2023-05-10T08:07:56.301Z,65.69
2023-05-10T08:10:29.691Z,64.84
2023-05-10T08:13:00.865Z,65.29
2023-05-10T08:15:33.571Z,63.56
2023-05-10T08:18:03.811Z,65.10
2023-05-10T08:20:34.126Z,63.72
2023-05-10T08:23:04.484Z,64.49
2023-05-10T08:25:37.921Z,63.92
2023-05-10T08:28:09.965Z,64.28
2023-05-10T08:30:42.631Z,62.98
2023-05-10T08:33:13.344Z,62.87
2023-05-10T08:35:43.935Z,63.20
2023-05-10T08:38:15.465Z,63.04
2023-05-10T08:40:49.947Z,62.54
2023-05-10T08:43:21.353Z,61.98
2023-05-10T08:45:54.532Z,61.61
2023-05-10T08:48:27.642Z,62.68
2023-05-10T08:51:00.040Z,60.45
2023-05-10T08:53:33.154Z,60.44
2023-05-10T08:56:06.625Z,59.28
2023-05-10T08:58:38.011Z,58.54
2023-05-10T09:01:09.698Z,58.20
2023-05-10T09:03:46.089Z,59.92
2023-05-10T09:06:17.230Z,58.71
2023-05-10T09:08:48.931Z,57.95
2023-05-10T09:11:22.105Z,57.39
2023-05-10T09:13:56.586Z,58.11
2023-05-10T09:16:27.998Z,58.45
2023-05-10T09:18:58.178Z,56.34
2023-05-10T09:21:29.364Z,56.83
2023-05-10T09:23:59.473Z,56.75
2023-05-10T09:26:32.768Z,57.23
2023-05-10T09:29:04.723Z,57.84
2023-05-10T09:31:56.095Z,58.34
2023-05-10T09:34:36.085Z,56.20
2023-05-10T09:37:07.476Z,57.61
2023-05-10T09:39:39.291Z,56.88
2023-05-10T09:42:13.630Z,56.55
2023-05-10T09:44:44.874Z,55.97
2023-05-10T09:47:21.586Z,55.50
2023-05-10T09:49:54.178Z,54.88
2023-05-10T09:52:24.667Z,55.32
2023-05-10T09:54:58.463Z,55.37
2023-05-10T09:57:32.360Z,54.65
2023-05-10T10:00:06.301Z,54.00
2023-05-10T10:02:43.958Z,54.78
2023-05-10T10:05:16.434Z,54.55
2023-05-10T10:07:47.484Z,53.73
2023-05-10T10:10:17.444Z,53.53
2023-05-10T10:12:52.796Z,52.56
2023-05-10T10:15:26.987Z,53.03
2023-05-10T10:17:58.610Z,52.49
2023-05-10T10:20:29.439Z,51.73
2023-05-10T10:22:59.588Z,51.54
2023-05-10T10:25:30.189Z,51.17
2023-05-10T10:28:28.438Z,51.83
2023-05-10T10:31:04.394Z,51.49
2023-05-10T10:33:55.752Z,52.11
2023-05-10T10:36:28.369Z,50.89
2023-05-10T10:39:06.034Z,51.06
2023-05-10T10:41:38.326Z,48.93
2023-05-10T10:44:30.933Z,49.40
2023-05-10T10:47:20.061Z,49.18
2023-05-10T10:49:55.006Z,49.30
2023-05-10T10:52:31.176Z,49.05
2023-05-10T10:55:06.577Z,48.09
2023-05-10T10:57:46.688Z,48.12
2023-05-10T11:00:35.167Z,47.72
2023-05-10T11:03:10.708Z,47.94
2023-05-10T11:05:44.533Z,47.85
2023-05-10T11:08:33.708Z,48.01
2023-05-10T11:11:13.426Z,48.08
2023-05-10T11:13:45.863Z,46.83
2023-05-10T11:16:22.147Z,46.65
2023-05-10T11:19:08.183Z,46.54
2023-05-10T11:21:49.773Z,46.34
2023-05-10T11:24:22.300Z,45.45
2023-05-10T11:26:55.167Z,45.82
2023-05-10T11:29:27.502Z,46.29
2023-05-10T11:32:02.623Z,45.86
2023-05-10T11:34:34.973Z,44.73
2023-05-10T11:37:05.508Z,46.21
2023-05-10T11:39:36.476Z,45.15
2023-05-10T11:42:06.530Z,44.76
2023-05-10T11:44:37.202Z,45.80
2023-05-10T11:47:10.393Z,45.24
2023-05-10T11:49:40.718Z,44.65
2023-05-10T11:52:12.994Z,43.79
2023-05-10T11:54:50.152Z,43.21
2023-05-10T11:57:20.329Z,44.36
2023-05-10T11:59:53.113Z,43.74
2023-05-10T12:02:26.223Z,43.31
2023-05-10T12:04:57.038Z,43.59
2023-05-10T12:07:27.299Z,43.58
2023-05-10T12:10:10.716Z,43.23
2023-05-10T12:12:45.949Z,43.78
2023-05-10T12:15:22.712Z,42.23
2023-05-10T12:17:56.052Z,42.63
2023-05-10T12:20:28.076Z,42.14
2023-05-10T12:23:00.774Z,42.96
2023-05-10T12:25:35.218Z,42.71
2023-05-10T12:28:09.641Z,41.47
2023-05-10T12:30:40.770Z,42.33
2023-05-10T12:33:21.593Z,42.11
2023-05-10T12:35:52.462Z,41.21
2023-05-10T12:38:32.522Z,41.74
2023-05-10T12:41:07.267Z,42.34
2023-05-10T12:43:38.629Z,42.31
2023-05-10T12:46:10.226Z,41.28
2023-05-10T12:48:44.412Z,40.56
2023-05-10T12:51:18.444Z,41.08
2023-05-10T12:53:49.762Z,41.13
2023-05-10T12:56:20.357Z,40.61
2023-05-10T12:58:50.586Z,40.93
2023-05-10T13:01:20.916Z,41.30
2023-05-10T13:03:55.529Z,40.53
2023-05-10T13:06:26.026Z,40.29
2023-05-10T13:08:56.447Z,40.82
2023-05-10T13:11:26.886Z,40.60
2023-05-10T13:13:57.308Z,39.11
2023-05-10T13:16:28.040Z,39.67
2023-05-10T13:19:02.060Z,40.15
2023-05-10T13:21:35.494Z,39.61
2023-05-10T13:24:06.914Z,39.04
2023-05-10T13:26:37.569Z,39.11
2023-05-10T13:29:08.121Z,39.82
2023-05-10T13:31:39.381Z,39.36
2023-05-10T13:34:12.747Z,39.65
2023-05-10T13:36:43.311Z,40.04
2023-05-10T13:39:13.536Z,38.67
2023-05-10T13:41:44.083Z,38.39
2023-05-10T13:44:17.756Z,38.84
2023-05-10T13:46:50.444Z,39.90
2023-05-10T13:49:23.637Z,39.65
2023-05-10T13:51:53.936Z,38.94
2023-05-10T13:54:24.475Z,39.07
2023-05-10T13:56:54.956Z,38.86
2023-05-10T13:59:25.693Z,39.02
2023-05-10T14:01:57.592Z,38.64
2023-05-10T14:04:36.264Z,39.05
2023-05-10T14:07:06.744Z,38.44
2023-05-10T14:09:37.390Z,38.66
2023-05-10T14:12:09.598Z,38.00
2023-05-10T14:14:40.378Z,37.71
2023-05-10T14:17:12.387Z,38.14
2023-05-10T14:19:45.562Z,37.97
2023-05-10T14:22:20.084Z,38.28
2023-05-10T14:24:50.523Z,37.57
2023-05-10T14:27:20.974Z,38.43
2023-05-10T14:29:54.418Z,37.73
2023-05-10T14:32:24.682Z,37.71
2023-05-10T14:34:59.186Z,38.16
2023-05-10T14:37:29.362Z,38.65
2023-05-10T14:39:59.752Z,38.58
2023-05-10T14:42:30.107Z,38.99
2023-05-10T14:45:00.267Z,38.75
2023-05-10T14:47:30.569Z,39.48
2023-05-10T14:50:03.337Z,40.15
2023-05-10T14:52:34.610Z,41.56
2023-05-10T14:55:05.336Z,41.45
2023-05-10T14:57:35.582Z,42.02
2023-05-10T15:00:06.272Z,42.51
2023-05-10T15:02:37.882Z,41.97
2023-05-10T15:05:15.418Z,42.69
2023-05-10T15:07:46.842Z,43.41
2023-05-10T15:10:17.002Z,43.55
2023-05-10T15:12:47.469Z,43.82
2023-05-10T15:15:17.792Z,43.28
2023-05-10T15:17:48.637Z,44.01
2023-05-10T15:20:22.000Z,43.62
2023-05-10T15:22:52.462Z,44.71
2023-05-10T15:25:24.926Z,45.04
2023-05-10T15:27:55.068Z,45.14
2023-05-10T15:30:25.581Z,44.67
2023-05-10T15:32:56.280Z,45.15
2023-05-10T15:35:30.070Z,44.62
2023-05-10T15:38:00.473Z,45.40
2023-05-10T15:40:30.766Z,45.04
2023-05-10T15:43:00.982Z,45.03
2023-05-10T15:45:31.436Z,45.63
2023-05-10T15:48:04.217Z,45.64
2023-05-10T15:50:38.383Z,45.76
2023-05-10T15:53:08.601Z,46.12
2023-05-10T15:55:38.816Z,45.46
2023-05-10T15:58:09.056Z,45.40
2023-05-10T16:00:39.384Z,45.75
2023-05-10T16:03:10.018Z,45.59
2023-05-10T16:05:42.909Z,45.16
2023-05-10T16:08:13.158Z,44.87
2023-05-10T16:10:43.500Z,45.14
2023-05-10T16:13:15.360Z,45.35
2023-05-10T16:15:45.684Z,45.83
2023-05-10T16:18:20.342Z,44.68
2023-05-10T16:20:53.571Z,44.98
2023-05-10T16:23:24.122Z,45.25
2023-05-10T16:25:55.198Z,45.14
2023-05-10T16:28:25.508Z,46.22
2023-05-10T16:30:56.859Z,45.86
2023-05-10T16:33:27.243Z,46.73
2023-05-10T16:36:00.366Z,47.08
2023-05-10T16:38:30.617Z,47.47
2023-05-10T16:41:01.076Z,47.16
2023-05-10T16:43:31.286Z,47.52
2023-05-10T16:46:01.914Z,48.45
2023-05-10T16:48:34.483Z,48.49
2023-05-10T16:51:09.513Z,48.22
2023-05-10T16:53:40.067Z,48.78
2023-05-10T16:56:10.915Z,49.15
2023-05-10T16:58:41.114Z,48.92
2023-05-10T17:01:15.766Z,48.53
2023-05-10T17:03:48.717Z,48.69
2023-05-10T17:06:21.743Z,48.58
2023-05-10T17:08:52.065Z,48.66
2023-05-10T17:11:25.170Z,48.76
2023-05-10T17:13:55.526Z,49.00
2023-05-10T17:16:26.286Z,48.87
2023-05-10T17:18:57.124Z,49.75
2023-05-10T17:21:29.875Z,49.20
2023-05-10T17:24:00.370Z,49.54
2023-05-10T17:26:31.161Z,50.40
2023-05-10T17:29:01.790Z,50.30
2023-05-10T17:31:34.580Z,50.55
2023-05-10T17:34:05.741Z,50.36
2023-05-10T17:36:39.268Z,50.13
2023-05-10T17:39:09.598Z,50.52
2023-05-10T17:41:39.913Z,50.68
2023-05-10T17:44:11.047Z,50.94
2023-05-10T17:46:43.795Z,50.57
2023-05-10T17:49:14.161Z,50.51
2023-05-10T17:51:49.833Z,50.72
2023-05-10T17:54:22.562Z,51.22
2023-05-10T17:56:53.127Z,50.96
2023-05-10T17:59:23.671Z,51.48
2023-05-10T18:01:54.229Z,51.41
2023-05-10T18:04:25.244Z,51.23
2023-05-10T18:07:01.888Z,51.47
2023-05-10T18:09:34.492Z,51.08
2023-05-10T18:12:06.444Z,51.32
2023-05-10T18:14:41.200Z,51.65
2023-05-10T18:17:14.058Z,51.64
2023-05-10T18:19:45.081Z,51.31
2023-05-10T18:22:18.077Z,51.22
2023-05-10T18:24:49.150Z,50.30
2023-05-10T18:27:19.736Z,50.50
2023-05-10T18:29:50.059Z,64.57
2023-05-10T18:32:21.611Z,54.80
2023-05-10T18:34:55.991Z,56.26
2023-05-10T18:37:28.833Z,59.95
2023-05-10T18:40:01.724Z,55.79
2023-05-10T18:42:32.901Z,54.54
2023-05-10T18:45:03.772Z,50.68
2023-05-10T18:47:34.221Z,50.16
2023-05-10T18:50:07.201Z,49.74
2023-05-10T18:52:43.533Z,49.30
2023-05-10T18:55:14.325Z,50.10
2023-05-10T18:57:45.434Z,49.14
2023-05-10T19:00:16.101Z,48.29
2023-05-10T19:02:47.143Z,48.93
2023-05-10T19:05:18.140Z,46.53
2023-05-10T19:07:53.124Z,48.12
2023-05-10T19:10:23.512Z,47.66
2023-05-10T19:12:57.518Z,46.90
2023-05-10T19:15:27.734Z,47.49
2023-05-10T19:17:58.756Z,48.48
2023-05-10T19:20:29.818Z,47.42
2023-05-10T19:23:09.777Z,47.02
2023-05-10T19:25:43.370Z,46.58
2023-05-10T19:28:15.992Z,46.50
2023-05-10T19:30:49.873Z,46.93
2023-05-10T19:33:21.321Z,46.34
2023-05-10T19:35:53.520Z,45.35
2023-05-10T19:38:29.226Z,46.10
2023-05-10T19:41:00.652Z,46.95
2023-05-10T19:43:34.249Z,46.55
2023-05-10T19:46:05.385Z,46.66
2023-05-10T19:48:35.370Z,46.49
2023-05-10T19:51:10.142Z,47.22
2023-05-10T19:53:45.124Z,46.67
2023-05-10T19:56:18.492Z,46.86
2023-05-10T19:58:50.734Z,47.71
2023-05-10T20:01:21.307Z,48.12
2023-05-10T20:03:52.033Z,48.11
2023-05-10T20:06:22.534Z,48.97
2023-05-10T20:08:55.526Z,49.13
2023-05-10T20:11:25.815Z,49.94
2023-05-10T20:13:57.481Z,50.65
2023-05-10T20:16:27.871Z,50.60
2023-05-10T20:18:58.658Z,51.01
2023-05-10T20:21:29.669Z,51.04
2023-05-10T20:24:02.944Z,51.25
2023-05-10T20:26:36.014Z,51.22
2023-05-10T20:29:07.253Z,51.43
2023-05-10T20:31:37.463Z,51.78
2023-05-10T20:34:08.041Z,52.29
2023-05-10T20:36:38.517Z,52.04
2023-05-10T20:39:12.188Z,52.12
2023-05-10T20:41:42.902Z,52.13
2023-05-10T20:44:13.282Z,52.16
2023-05-10T20:46:43.755Z,52.85
2023-05-10T20:49:17.840Z,52.50
2023-05-10T20:51:48.149Z,52.99
2023-05-10T20:54:22.267Z,52.62
2023-05-10T20:56:52.744Z,53.05
2023-05-10T20:59:23.030Z,52.99
2023-05-10T21:01:56.509Z,53.13
2023-05-10T21:04:26.696Z,52.81
2023-05-10T21:06:57.267Z,53.14
2023-05-10T21:09:32.448Z,53.13
2023-05-10T21:12:03.528Z,53.28
2023-05-10T21:14:33.450Z,52.86
2023-05-10T21:17:03.875Z,52.98
2023-05-10T21:19:34.129Z,53.26
2023-05-10T21:22:04.357Z,53.27
2023-05-10T21:24:39.572Z,53.43
2023-05-10T21:27:10.264Z,53.64
2023-05-10T21:29:40.754Z,53.23
2023-05-10T21:32:11.342Z,53.32
2023-05-10T21:34:42.106Z,53.17
2023-05-10T21:37:14.518Z,53.46
2023-05-10T21:39:48.594Z,53.53
2023-05-10T21:42:18.817Z,53.43
2023-05-10T21:44:52.021Z,53.27
2023-05-10T21:47:22.369Z,53.79
2023-05-10T21:49:56.169Z,53.35
2023-05-10T21:52:27.214Z,53.50
2023-05-10T21:54:59.653Z,53.32
2023-05-10T21:57:30.207Z,53.32
2023-05-10T22:00:00.434Z,53.80
2023-05-10T22:02:31.032Z,53.73
2023-05-10T22:05:01.514Z,53.53
2023-05-10T22:07:34.059Z,53.73
2023-05-10T22:10:07.341Z,53.62
2023-05-10T22:12:37.526Z,54.02
2023-05-10T22:15:10.955Z,53.84
2023-05-10T22:17:42.845Z,54.09
2023-05-10T22:20:13.253Z,54.13
2023-05-10T22:22:43.492Z,54.35
2023-05-10T22:25:16.282Z,54.46
2023-05-10T22:27:46.439Z,54.73
2023-05-10T22:30:17.252Z,55.01
2023-05-10T22:32:48.209Z,55.32
2023-05-10T22:35:19.708Z,55.10
2023-05-10T22:37:50.143Z,55.25
2023-05-10T22:40:23.735Z,55.07
2023-05-10T22:42:53.962Z,55.92
2023-05-10T22:45:24.395Z,55.88
2023-05-10T22:47:55.991Z,55.79
2023-05-10T22:50:32.510Z,55.99
2023-05-10T22:53:02.694Z,56.19
2023-05-10T22:55:36.761Z,56.19
2023-05-10T22:58:07.149Z,56.05
2023-05-10T23:00:38.696Z,55.85
2023-05-10T23:03:09.512Z,56.17
2023-05-10T23:05:39.663Z,56.25
2023-05-10T23:08:09.897Z,56.81
2023-05-10T23:10:42.990Z,56.78
2023-05-10T23:13:15.229Z,56.66
2023-05-10T23:15:45.473Z,56.44
2023-05-10T23:18:15.863Z,56.74
2023-05-10T23:20:46.339Z,56.51
2023-05-10T23:23:17.011Z,56.43
2023-05-10T23:25:49.771Z,56.84
2023-05-10T23:28:20.276Z,56.70
2023-05-10T23:30:57.756Z,56.83
2023-05-10T23:33:28.857Z,56.84
2023-05-10T23:35:58.725Z,56.58
2023-05-10T23:38:29.141Z,56.67
2023-05-10T23:41:01.907Z,56.94
2023-05-10T23:43:32.122Z,57.10
2023-05-10T23:46:02.438Z,56.92
2023-05-10T23:48:32.688Z,56.59
2023-05-10T23:51:03.064Z,56.61
2023-05-10T23:53:33.331Z,56.82
2023-05-10T23:56:07.686Z,56.79
2023-05-10T23:58:38.901Z,56.99
